sensor_id;sensor_type;location;lat;lon;timestamp;P1;durP1;ratioP1;P2;durP2;ratioP2
54464;SDS011;40374;49.480;20.016;2022-12-05T00:03:55;292.17;;;117.07;;
54464;SDS011;40374;49.480;20.016;2022-12-05T00:06:24;299.30;;;116.18;;
54464;SDS011;40374;49.480;20.016;2022-12-05T00:08:54;299.48;;;118.53;;
54464;SDS011;40374;49.480;20.016;2022-12-05T00:11:23;274.88;;;111.28;;
54464;SDS011;40374;49.480;20.016;2022-12-05T00:13:57;282.80;;;107.75;;
54464;SDS011;40374;49.480;20.016;2022-12-05T00:16:27;257.80;;;99.88;;
54464;SDS011;40374;49.480;20.016;2022-12-05T00:18:58;260.67;;;97.00;;
54464;SDS011;40374;49.480;20.016;2022-12-05T00:21:27;214.02;;;86.32;;
54464;SDS011;40374;49.480;20.016;2022-12-05T00:23:57;216.68;;;83.57;;
54464;SDS011;40374;49.480;20.016;2022-12-05T00:26:26;201.90;;;80.28;;
54464;SDS011;40374;49.480;20.016;2022-12-05T00:28:55;205.25;;;81.95;;
54464;SDS011;40374;49.480;20.016;2022-12-05T00:31:23;206.73;;;78.55;;
54464;SDS011;40374;49.480;20.016;2022-12-05T00:33:53;205.05;;;77.40;;
54464;SDS011;40374;49.480;20.016;2022-12-05T00:36:22;209.20;;;79.95;;
54464;SDS011;40374;49.480;20.016;2022-12-05T00:38:52;202.88;;;77.30;;
54464;SDS011;40374;49.480;20.016;2022-12-05T00:41:21;208.93;;;75.75;;
54464;SDS011;40374;49.480;20.016;2022-12-05T00:43:53;216.00;;;83.30;;
54464;SDS011;40374;49.480;20.016;2022-12-05T00:46:22;244.57;;;94.70;;
54464;SDS011;40374;49.480;20.016;2022-12-05T00:48:53;256.63;;;94.68;;
54464;SDS011;40374;49.480;20.016;2022-12-05T00:51:24;264.20;;;98.75;;
54464;SDS011;40374;49.480;20.016;2022-12-05T00:53:56;257.42;;;99.30;;
54464;SDS011;40374;49.480;20.016;2022-12-05T00:56:25;253.18;;;99.47;;
54464;SDS011;40374;49.480;20.016;2022-12-05T00:58:54;240.18;;;94.70;;
54464;SDS011;40374;49.480;20.016;2022-12-05T01:01:24;236.68;;;94.28;;
54464;SDS011;40374;49.480;20.016;2022-12-05T01:04:00;268.45;;;113.30;;
54464;SDS011;40374;49.480;20.016;2022-12-05T01:06:29;250.40;;;103.00;;
54464;SDS011;40374;49.480;20.016;2022-12-05T01:08:57;244.68;;;101.70;;
54464;SDS011;40374;49.480;20.016;2022-12-05T01:11:24;246.82;;;97.55;;
54464;SDS011;40374;49.480;20.016;2022-12-05T01:13:53;241.73;;;94.97;;
54464;SDS011;40374;49.480;20.016;2022-12-05T01:16:23;241.65;;;95.70;;
54464;SDS011;40374;49.480;20.016;2022-12-05T01:18:51;256.70;;;103.15;;
54464;SDS011;40374;49.480;20.016;2022-12-05T01:21:19;268.15;;;106.90;;
54464;SDS011;40374;49.480;20.016;2022-12-05T01:23:47;265.48;;;108.47;;
54464;SDS011;40374;49.480;20.016;2022-12-05T01:26:16;266.90;;;107.15;;
54464;SDS011;40374;49.480;20.016;2022-12-05T01:28:45;268.30;;;107.70;;
54464;SDS011;40374;49.480;20.016;2022-12-05T01:34:01;281.85;;;110.35;;
54464;SDS011;40374;49.480;20.016;2022-12-05T01:36:29;314.17;;;126.07;;
54464;SDS011;40374;49.480;20.016;2022-12-05T01:38:57;287.10;;;120.03;;
54464;SDS011;40374;49.480;20.016;2022-12-05T01:41:26;289.80;;;122.55;;
54464;SDS011;40374;49.480;20.016;2022-12-05T01:46:27;384.52;;;159.35;;
54464;SDS011;40374;49.480;20.016;2022-12-05T01:49:05;364.80;;;145.63;;
54464;SDS011;40374;49.480;20.016;2022-12-05T01:51:37;317.70;;;135.60;;
54464;SDS011;40374;49.480;20.016;2022-12-05T01:54:06;306.42;;;127.45;;
54464;SDS011;40374;49.480;20.016;2022-12-05T01:56:36;307.58;;;123.05;;
54464;SDS011;40374;49.480;20.016;2022-12-05T01:59:06;291.52;;;118.30;;
54464;SDS011;40374;49.480;20.016;2022-12-05T02:01:35;279.92;;;121.57;;
54464;SDS011;40374;49.480;20.016;2022-12-05T02:04:03;286.45;;;118.57;;
54464;SDS011;40374;49.480;20.016;2022-12-05T02:06:31;293.08;;;121.35;;
54464;SDS011;40374;49.480;20.016;2022-12-05T02:08:59;288.38;;;117.55;;
54464;SDS011;40374;49.480;20.016;2022-12-05T02:11:27;290.30;;;121.78;;
54464;SDS011;40374;49.480;20.016;2022-12-05T02:16:49;246.75;;;102.60;;
54464;SDS011;40374;49.480;20.016;2022-12-05T02:25:00;235.02;;;90.63;;
54464;SDS011;40374;49.480;20.016;2022-12-05T02:30:20;236.90;;;88.43;;
54464;SDS011;40374;49.480;20.016;2022-12-05T02:33:00;219.98;;;85.78;;
54464;SDS011;40374;49.480;20.016;2022-12-05T02:35:44;206.82;;;82.47;;
54464;SDS011;40374;49.480;20.016;2022-12-05T02:38:39;218.60;;;85.13;;
54464;SDS011;40374;49.480;20.016;2022-12-05T02:41:18;213.10;;;84.68;;
54464;SDS011;40374;49.480;20.016;2022-12-05T02:44:06;204.27;;;83.45;;
54464;SDS011;40374;49.480;20.016;2022-12-05T02:46:44;231.95;;;95.43;;
54464;SDS011;40374;49.480;20.016;2022-12-05T02:49:17;230.32;;;91.82;;
54464;SDS011;40374;49.480;20.016;2022-12-05T02:51:51;234.43;;;90.88;;
54464;SDS011;40374;49.480;20.016;2022-12-05T02:54:28;222.40;;;86.95;;
54464;SDS011;40374;49.480;20.016;2022-12-05T02:57:00;221.68;;;89.35;;
54464;SDS011;40374;49.480;20.016;2022-12-05T02:59:28;233.35;;;92.68;;
54464;SDS011;40374;49.480;20.016;2022-12-05T03:01:55;232.43;;;93.53;;
54464;SDS011;40374;49.480;20.016;2022-12-05T03:04:25;240.85;;;101.85;;
54464;SDS011;40374;49.480;20.016;2022-12-05T03:06:57;244.80;;;95.25;;
54464;SDS011;40374;49.480;20.016;2022-12-05T03:12:12;225.52;;;89.28;;
54464;SDS011;40374;49.480;20.016;2022-12-05T03:17:29;255.40;;;108.65;;
54464;SDS011;40374;49.480;20.016;2022-12-05T03:20:10;282.42;;;116.57;;
54464;SDS011;40374;49.480;20.016;2022-12-05T03:25:21;312.55;;;124.47;;
54464;SDS011;40374;49.480;20.016;2022-12-05T03:27:52;274.48;;;115.00;;
54464;SDS011;40374;49.480;20.016;2022-12-05T03:30:28;280.02;;;118.88;;
54464;SDS011;40374;49.480;20.016;2022-12-05T03:33:02;273.85;;;114.40;;
54464;SDS011;40374;49.480;20.016;2022-12-05T03:35:41;254.80;;;110.10;;
54464;SDS011;40374;49.480;20.016;2022-12-05T03:38:24;261.10;;;109.68;;
54464;SDS011;40374;49.480;20.016;2022-12-05T03:41:15;267.50;;;110.05;;
54464;SDS011;40374;49.480;20.016;2022-12-05T03:43:54;168.07;;;69.60;;
54464;SDS011;40374;49.480;20.016;2022-12-05T03:49:06;127.07;;;52.38;;
54464;SDS011;40374;49.480;20.016;2022-12-05T03:51:51;114.90;;;51.83;;
54464;SDS011;40374;49.480;20.016;2022-12-05T03:54:23;110.07;;;44.55;;
54464;SDS011;40374;49.480;20.016;2022-12-05T03:56:54;204.00;;;85.85;;
54464;SDS011;40374;49.480;20.016;2022-12-05T04:01:59;166.75;;;71.85;;
54464;SDS011;40374;49.480;20.016;2022-12-05T04:04:33;123.18;;;53.88;;
54464;SDS011;40374;49.480;20.016;2022-12-05T04:07:06;127.50;;;53.63;;
54464;SDS011;40374;49.480;20.016;2022-12-05T04:09:47;106.03;;;47.78;;
54464;SDS011;40374;49.480;20.016;2022-12-05T04:12:22;104.53;;;46.50;;
54464;SDS011;40374;49.480;20.016;2022-12-05T04:14:57;155.38;;;70.80;;
54464;SDS011;40374;49.480;20.016;2022-12-05T04:20:20;144.18;;;59.80;;
54464;SDS011;40374;49.480;20.016;2022-12-05T04:23:07;126.00;;;51.08;;
54464;SDS011;40374;49.480;20.016;2022-12-05T04:25:38;119.22;;;54.80;;
54464;SDS011;40374;49.480;20.016;2022-12-05T04:31:05;112.03;;;46.60;;
54464;SDS011;40374;49.480;20.016;2022-12-05T04:36:28;125.18;;;57.80;;
54464;SDS011;40374;49.480;20.016;2022-12-05T04:42:08;114.78;;;47.03;;
54464;SDS011;40374;49.480;20.016;2022-12-05T04:44:44;116.95;;;47.22;;
54464;SDS011;40374;49.480;20.016;2022-12-05T04:47:16;101.82;;;44.13;;
54464;SDS011;40374;49.480;20.016;2022-12-05T04:49:47;105.30;;;43.63;;
54464;SDS011;40374;49.480;20.016;2022-12-05T04:52:19;106.03;;;49.20;;
54464;SDS011;40374;49.480;20.016;2022-12-05T04:54:49;115.20;;;46.58;;
54464;SDS011;40374;49.480;20.016;2022-12-05T04:57:23;115.65;;;49.53;;
54464;SDS011;40374;49.480;20.016;2022-12-05T04:59:55;119.88;;;48.55;;
54464;SDS011;40374;49.480;20.016;2022-12-05T05:02:46;108.85;;;47.97;;
54464;SDS011;40374;49.480;20.016;2022-12-05T05:05:29;105.72;;;46.10;;
54464;SDS011;40374;49.480;20.016;2022-12-05T05:07:57;122.25;;;48.30;;
54464;SDS011;40374;49.480;20.016;2022-12-05T05:10:38;113.88;;;46.70;;
54464;SDS011;40374;49.480;20.016;2022-12-05T05:13:14;121.30;;;49.63;;
54464;SDS011;40374;49.480;20.016;2022-12-05T05:15:41;130.52;;;55.15;;
54464;SDS011;40374;49.480;20.016;2022-12-05T05:18:09;137.23;;;55.63;;
54464;SDS011;40374;49.480;20.016;2022-12-05T05:20:36;135.50;;;54.58;;
54464;SDS011;40374;49.480;20.016;2022-12-05T05:23:04;139.57;;;58.20;;
54464;SDS011;40374;49.480;20.016;2022-12-05T05:25:31;218.32;;;84.55;;
54464;SDS011;40374;49.480;20.016;2022-12-05T05:27:59;221.50;;;88.90;;
54464;SDS011;40374;49.480;20.016;2022-12-05T05:30:26;253.45;;;95.90;;
54464;SDS011;40374;49.480;20.016;2022-12-05T05:32:53;223.20;;;86.38;;
54464;SDS011;40374;49.480;20.016;2022-12-05T05:35:20;165.25;;;65.47;;
54464;SDS011;40374;49.480;20.016;2022-12-05T05:37:48;146.65;;;58.58;;
54464;SDS011;40374;49.480;20.016;2022-12-05T05:40:15;127.57;;;54.05;;
54464;SDS011;40374;49.480;20.016;2022-12-05T05:42:44;122.15;;;54.25;;
54464;SDS011;40374;49.480;20.016;2022-12-05T05:45:13;93.20;;;40.00;;
54464;SDS011;40374;49.480;20.016;2022-12-05T05:47:42;82.35;;;36.60;;
54464;SDS011;40374;49.480;20.016;2022-12-05T05:50:09;69.78;;;31.70;;
54464;SDS011;40374;49.480;20.016;2022-12-05T05:52:45;67.88;;;29.35;;
54464;SDS011;40374;49.480;20.016;2022-12-05T05:55:12;82.57;;;36.30;;
54464;SDS011;40374;49.480;20.016;2022-12-05T05:57:40;79.80;;;35.80;;
54464;SDS011;40374;49.480;20.016;2022-12-05T06:00:16;89.20;;;39.83;;
54464;SDS011;40374;49.480;20.016;2022-12-05T06:02:43;80.22;;;36.60;;
54464;SDS011;40374;49.480;20.016;2022-12-05T06:05:11;81.68;;;37.70;;
54464;SDS011;40374;49.480;20.016;2022-12-05T06:07:38;89.63;;;39.75;;
54464;SDS011;40374;49.480;20.016;2022-12-05T06:10:06;71.55;;;33.10;;
54464;SDS011;40374;49.480;20.016;2022-12-05T06:12:37;62.42;;;28.33;;
54464;SDS011;40374;49.480;20.016;2022-12-05T06:15:04;57.85;;;27.13;;
54464;SDS011;40374;49.480;20.016;2022-12-05T06:17:32;65.10;;;28.58;;
54464;SDS011;40374;49.480;20.016;2022-12-05T06:19:59;61.08;;;28.10;;
54464;SDS011;40374;49.480;20.016;2022-12-05T06:22:28;61.78;;;29.70;;
54464;SDS011;40374;49.480;20.016;2022-12-05T06:24:56;73.20;;;32.28;;
54464;SDS011;40374;49.480;20.016;2022-12-05T06:27:24;67.47;;;31.40;;
54464;SDS011;40374;49.480;20.016;2022-12-05T06:29:51;76.47;;;33.85;;
54464;SDS011;40374;49.480;20.016;2022-12-05T06:32:19;85.85;;;38.42;;
54464;SDS011;40374;49.480;20.016;2022-12-05T06:34:46;70.43;;;32.22;;
54464;SDS011;40374;49.480;20.016;2022-12-05T06:37:16;65.45;;;29.45;;
54464;SDS011;40374;49.480;20.016;2022-12-05T06:39:43;62.63;;;29.45;;
54464;SDS011;40374;49.480;20.016;2022-12-05T06:42:10;119.13;;;49.40;;
54464;SDS011;40374;49.480;20.016;2022-12-05T06:44:37;97.80;;;42.38;;
54464;SDS011;40374;49.480;20.016;2022-12-05T06:47:05;105.63;;;47.67;;
54464;SDS011;40374;49.480;20.016;2022-12-05T06:49:32;97.53;;;42.80;;
54464;SDS011;40374;49.480;20.016;2022-12-05T06:52:04;84.68;;;39.00;;
54464;SDS011;40374;49.480;20.016;2022-12-05T06:54:31;203.70;;;76.57;;
54464;SDS011;40374;49.480;20.016;2022-12-05T06:56:59;228.95;;;82.07;;
54464;SDS011;40374;49.480;20.016;2022-12-05T06:59:26;186.38;;;68.82;;
54464;SDS011;40374;49.480;20.016;2022-12-05T07:01:53;112.90;;;44.60;;
54464;SDS011;40374;49.480;20.016;2022-12-05T07:04:21;93.47;;;38.10;;
54464;SDS011;40374;49.480;20.016;2022-12-05T07:06:51;87.97;;;37.17;;
54464;SDS011;40374;49.480;20.016;2022-12-05T07:09:24;96.68;;;38.33;;
54464;SDS011;40374;49.480;20.016;2022-12-05T07:12:13;71.68;;;31.63;;
54464;SDS011;40374;49.480;20.016;2022-12-05T07:14:42;78.90;;;36.85;;
54464;SDS011;40374;49.480;20.016;2022-12-05T07:17:16;64.18;;;30.02;;
54464;SDS011;40374;49.480;20.016;2022-12-05T07:19:48;60.08;;;31.95;;
54464;SDS011;40374;49.480;20.016;2022-12-05T07:22:18;50.35;;;26.13;;
54464;SDS011;40374;49.480;20.016;2022-12-05T07:24:46;58.72;;;28.40;;
54464;SDS011;40374;49.480;20.016;2022-12-05T07:27:14;59.95;;;30.92;;
54464;SDS011;40374;49.480;20.016;2022-12-05T07:29:41;49.00;;;23.50;;
54464;SDS011;40374;49.480;20.016;2022-12-05T07:32:09;42.08;;;22.65;;
54464;SDS011;40374;49.480;20.016;2022-12-05T07:34:36;50.55;;;26.00;;
54464;SDS011;40374;49.480;20.016;2022-12-05T07:37:05;48.22;;;23.30;;
54464;SDS011;40374;49.480;20.016;2022-12-05T07:39:32;39.65;;;21.20;;
54464;SDS011;40374;49.480;20.016;2022-12-05T07:42:00;43.15;;;21.73;;
54464;SDS011;40374;49.480;20.016;2022-12-05T07:44:27;54.33;;;22.42;;
54464;SDS011;40374;49.480;20.016;2022-12-05T07:46:55;54.88;;;23.63;;
54464;SDS011;40374;49.480;20.016;2022-12-05T07:49:22;64.00;;;21.60;;
54464;SDS011;40374;49.480;20.016;2022-12-05T07:51:50;44.92;;;22.05;;
54464;SDS011;40374;49.480;20.016;2022-12-05T07:54:19;38.95;;;18.75;;
54464;SDS011;40374;49.480;20.016;2022-12-05T07:56:47;36.97;;;18.67;;
54464;SDS011;40374;49.480;20.016;2022-12-05T07:59:14;41.22;;;18.00;;
54464;SDS011;40374;49.480;20.016;2022-12-05T08:01:42;39.78;;;20.00;;
54464;SDS011;40374;49.480;20.016;2022-12-05T08:04:09;46.22;;;19.88;;
54464;SDS011;40374;49.480;20.016;2022-12-05T08:06:42;41.78;;;20.38;;
54464;SDS011;40374;49.480;20.016;2022-12-05T08:09:09;38.55;;;19.80;;
54464;SDS011;40374;49.480;20.016;2022-12-05T08:11:37;36.67;;;19.33;;
54464;SDS011;40374;49.480;20.016;2022-12-05T08:14:04;39.85;;;21.02;;
54464;SDS011;40374;49.480;20.016;2022-12-05T08:16:33;35.40;;;18.40;;
54464;SDS011;40374;49.480;20.016;2022-12-05T08:19:02;40.80;;;19.75;;
54464;SDS011;40374;49.480;20.016;2022-12-05T08:21:32;39.10;;;18.75;;
54464;SDS011;40374;49.480;20.016;2022-12-05T08:24:02;40.80;;;20.10;;
54464;SDS011;40374;49.480;20.016;2022-12-05T08:26:32;34.30;;;20.17;;
54464;SDS011;40374;49.480;20.016;2022-12-05T08:29:02;45.88;;;20.48;;
54464;SDS011;40374;49.480;20.016;2022-12-05T08:31:34;45.22;;;18.98;;
54464;SDS011;40374;49.480;20.016;2022-12-05T08:34:02;57.05;;;21.58;;
54464;SDS011;40374;49.480;20.016;2022-12-05T08:36:30;43.85;;;18.25;;
54464;SDS011;40374;49.480;20.016;2022-12-05T08:38:58;46.83;;;21.02;;
54464;SDS011;40374;49.480;20.016;2022-12-05T08:41:31;55.85;;;21.15;;
54464;SDS011;40374;49.480;20.016;2022-12-05T08:43:59;40.15;;;19.80;;
54464;SDS011;40374;49.480;20.016;2022-12-05T08:46:35;49.40;;;23.17;;
54464;SDS011;40374;49.480;20.016;2022-12-05T08:49:04;57.28;;;21.33;;
54464;SDS011;40374;49.480;20.016;2022-12-05T08:51:33;46.72;;;19.00;;
54464;SDS011;40374;49.480;20.016;2022-12-05T08:54:01;51.92;;;20.40;;
54464;SDS011;40374;49.480;20.016;2022-12-05T08:56:33;47.13;;;18.33;;
54464;SDS011;40374;49.480;20.016;2022-12-05T08:59:01;46.88;;;18.13;;
54464;SDS011;40374;49.480;20.016;2022-12-05T09:01:32;43.15;;;18.27;;
54464;SDS011;40374;49.480;20.016;2022-12-05T09:04:03;43.92;;;19.88;;
54464;SDS011;40374;49.480;20.016;2022-12-05T09:06:31;46.83;;;22.08;;
54464;SDS011;40374;49.480;20.016;2022-12-05T09:09:01;52.88;;;22.08;;
54464;SDS011;40374;49.480;20.016;2022-12-05T09:11:32;39.13;;;14.73;;
54464;SDS011;40374;49.480;20.016;2022-12-05T09:14:06;39.22;;;15.02;;
54464;SDS011;40374;49.480;20.016;2022-12-05T09:16:35;32.20;;;13.02;;
54464;SDS011;40374;49.480;20.016;2022-12-05T09:19:26;36.33;;;16.02;;
54464;SDS011;40374;49.480;20.016;2022-12-05T09:21:54;31.42;;;14.38;;
54464;SDS011;40374;49.480;20.016;2022-12-05T09:24:23;27.30;;;12.65;;
54464;SDS011;40374;49.480;20.016;2022-12-05T09:26:52;25.92;;;12.88;;
54464;SDS011;40374;49.480;20.016;2022-12-05T09:29:19;22.50;;;12.40;;
54464;SDS011;40374;49.480;20.016;2022-12-05T09:31:46;20.73;;;11.52;;
54464;SDS011;40374;49.480;20.016;2022-12-05T09:34:15;23.30;;;12.60;;
54464;SDS011;40374;49.480;20.016;2022-12-05T09:36:45;21.95;;;11.98;;
54464;SDS011;40374;49.480;20.016;2022-12-05T09:39:24;14.55;;;9.00;;
54464;SDS011;40374;49.480;20.016;2022-12-05T09:50:24;14.02;;;7.80;;
54464;SDS011;40374;49.480;20.016;2022-12-05T09:55:47;17.90;;;8.88;;
54464;SDS011;40374;49.480;20.016;2022-12-05T10:01:19;20.63;;;9.80;;
54464;SDS011;40374;49.480;20.016;2022-12-05T10:06:35;13.10;;;7.18;;
54464;SDS011;40374;49.480;20.016;2022-12-05T10:11:51;13.05;;;7.13;;
54464;SDS011;40374;49.480;20.016;2022-12-05T10:16:51;15.93;;;9.07;;
54464;SDS011;40374;49.480;20.016;2022-12-05T10:19:33;23.17;;;12.57;;
54464;SDS011;40374;49.480;20.016;2022-12-05T10:22:27;15.05;;;7.95;;
54464;SDS011;40374;49.480;20.016;2022-12-05T10:25:06;17.75;;;8.65;;
54464;SDS011;40374;49.480;20.016;2022-12-05T10:27:37;11.75;;;7.68;;
54464;SDS011;40374;49.480;20.016;2022-12-05T10:30:12;13.35;;;6.00;;
54464;SDS011;40374;49.480;20.016;2022-12-05T10:35:19;10.38;;;6.30;;
54464;SDS011;40374;49.480;20.016;2022-12-05T10:37:56;17.15;;;10.48;;
54464;SDS011;40374;49.480;20.016;2022-12-05T10:40:26;16.90;;;11.40;;
54464;SDS011;40374;49.480;20.016;2022-12-05T10:43:03;24.55;;;14.98;;
54464;SDS011;40374;49.480;20.016;2022-12-05T10:45:32;14.95;;;9.48;;
54464;SDS011;40374;49.480;20.016;2022-12-05T10:48:07;16.83;;;8.50;;
54464;SDS011;40374;49.480;20.016;2022-12-05T10:50:39;12.82;;;7.10;;
54464;SDS011;40374;49.480;20.016;2022-12-05T10:53:10;11.52;;;6.60;;
54464;SDS011;40374;49.480;20.016;2022-12-05T10:55:43;12.00;;;7.00;;
54464;SDS011;40374;49.480;20.016;2022-12-05T10:58:33;11.95;;;7.53;;
54464;SDS011;40374;49.480;20.016;2022-12-05T11:01:07;13.80;;;7.32;;
54464;SDS011;40374;49.480;20.016;2022-12-05T11:03:37;12.88;;;7.18;;
54464;SDS011;40374;49.480;20.016;2022-12-05T11:08:50;15.63;;;9.30;;
54464;SDS011;40374;49.480;20.016;2022-12-05T11:11:34;19.88;;;8.68;;
54464;SDS011;40374;49.480;20.016;2022-12-05T11:14:03;20.77;;;9.32;;
54464;SDS011;40374;49.480;20.016;2022-12-05T11:16:55;18.30;;;8.93;;
54464;SDS011;40374;49.480;20.016;2022-12-05T11:22:05;20.38;;;8.77;;
54464;SDS011;40374;49.480;20.016;2022-12-05T11:24:37;29.83;;;11.60;;
54464;SDS011;40374;49.480;20.016;2022-12-05T11:29:42;23.23;;;10.00;;
54464;SDS011;40374;49.480;20.016;2022-12-05T11:32:20;13.30;;;7.07;;
54464;SDS011;40374;49.480;20.016;2022-12-05T11:34:52;16.70;;;8.23;;
54464;SDS011;40374;49.480;20.016;2022-12-05T11:37:43;29.48;;;12.18;;
54464;SDS011;40374;49.480;20.016;2022-12-05T12:07:47;22.15;;;9.98;;
54464;SDS011;40374;49.480;20.016;2022-12-05T12:10:59;22.58;;;11.30;;
54464;SDS011;40374;49.480;20.016;2022-12-05T12:14:32;20.02;;;8.70;;
54464;SDS011;40374;49.480;20.016;2022-12-05T12:22:25;23.65;;;13.23;;
54464;SDS011;40374;49.480;20.016;2022-12-05T12:30:44;27.90;;;13.85;;
54464;SDS011;40374;49.480;20.016;2022-12-05T12:33:26;27.00;;;11.73;;
54464;SDS011;40374;49.480;20.016;2022-12-05T12:39:02;12.75;;;6.78;;
54464;SDS011;40374;49.480;20.016;2022-12-05T12:50:26;48.85;;;19.23;;
54464;SDS011;40374;49.480;20.016;2022-12-05T12:56:03;46.20;;;17.77;;
54464;SDS011;40374;49.480;20.016;2022-12-05T12:58:46;61.00;;;24.67;;
54464;SDS011;40374;49.480;20.016;2022-12-05T13:04:15;36.28;;;17.27;;
54464;SDS011;40374;49.480;20.016;2022-12-05T13:09:49;27.08;;;14.48;;
54464;SDS011;40374;49.480;20.016;2022-12-05T13:12:28;19.63;;;10.50;;
54464;SDS011;40374;49.480;20.016;2022-12-05T13:15:00;19.95;;;11.27;;
54464;SDS011;40374;49.480;20.016;2022-12-05T13:17:33;20.33;;;10.43;;
54464;SDS011;40374;49.480;20.016;2022-12-05T13:20:02;19.08;;;9.93;;
54464;SDS011;40374;49.480;20.016;2022-12-05T13:22:30;24.33;;;10.75;;
54464;SDS011;40374;49.480;20.016;2022-12-05T13:24:58;20.00;;;9.02;;
54464;SDS011;40374;49.480;20.016;2022-12-05T13:27:26;23.55;;;10.30;;
54464;SDS011;40374;49.480;20.016;2022-12-05T13:29:55;22.73;;;11.13;;
54464;SDS011;40374;49.480;20.016;2022-12-05T13:35:00;22.48;;;10.18;;
54464;SDS011;40374;49.480;20.016;2022-12-05T13:37:36;26.90;;;13.15;;
54464;SDS011;40374;49.480;20.016;2022-12-05T13:40:34;21.67;;;10.38;;
54464;SDS011;40374;49.480;20.016;2022-12-05T13:43:27;24.17;;;10.50;;
54464;SDS011;40374;49.480;20.016;2022-12-05T13:48:35;21.88;;;10.75;;
54464;SDS011;40374;49.480;20.016;2022-12-05T13:51:07;23.13;;;9.02;;
54464;SDS011;40374;49.480;20.016;2022-12-05T13:53:48;24.02;;;11.10;;
54464;SDS011;40374;49.480;20.016;2022-12-05T13:56:25;26.48;;;11.93;;
54464;SDS011;40374;49.480;20.016;2022-12-05T13:58:55;25.10;;;10.27;;
54464;SDS011;40374;49.480;20.016;2022-12-05T14:04:17;25.75;;;10.98;;
54464;SDS011;40374;49.480;20.016;2022-12-05T14:17:23;40.08;;;14.30;;
54464;SDS011;40374;49.480;20.016;2022-12-05T14:34:30;40.65;;;16.92;;
54464;SDS011;40374;49.480;20.016;2022-12-05T14:39:50;37.90;;;17.83;;
54464;SDS011;40374;49.480;20.016;2022-12-05T14:42:29;38.78;;;17.73;;
54464;SDS011;40374;49.480;20.016;2022-12-05T14:45:16;45.88;;;20.30;;
54464;SDS011;40374;49.480;20.016;2022-12-05T14:47:56;54.33;;;21.80;;
54464;SDS011;40374;49.480;20.016;2022-12-05T14:50:44;48.22;;;19.90;;
54464;SDS011;40374;49.480;20.016;2022-12-05T14:53:14;55.92;;;24.23;;
54464;SDS011;40374;49.480;20.016;2022-12-05T14:55:53;85.85;;;29.40;;
54464;SDS011;40374;49.480;20.016;2022-12-05T15:01:00;81.25;;;37.80;;
54464;SDS011;40374;49.480;20.016;2022-12-05T15:03:36;71.93;;;34.72;;
54464;SDS011;40374;49.480;20.016;2022-12-05T15:06:13;74.88;;;35.20;;
54464;SDS011;40374;49.480;20.016;2022-12-05T15:08:46;68.38;;;35.25;;
54464;SDS011;40374;49.480;20.016;2022-12-05T15:11:17;62.03;;;31.98;;
54464;SDS011;40374;49.480;20.016;2022-12-05T15:14:10;66.28;;;33.05;;
54464;SDS011;40374;49.480;20.016;2022-12-05T15:16:48;175.93;;;58.47;;
54464;SDS011;40374;49.480;20.016;2022-12-05T15:19:23;128.88;;;46.58;;
54464;SDS011;40374;49.480;20.016;2022-12-05T15:21:57;76.82;;;33.03;;
54464;SDS011;40374;49.480;20.016;2022-12-05T15:24:35;54.80;;;24.52;;
54464;SDS011;40374;49.480;20.016;2022-12-05T15:27:04;41.15;;;18.10;;
54464;SDS011;40374;49.480;20.016;2022-12-05T15:29:39;44.75;;;20.60;;
54464;SDS011;40374;49.480;20.016;2022-12-05T15:34:43;64.13;;;29.70;;
54464;SDS011;40374;49.480;20.016;2022-12-05T15:37:32;48.83;;;21.88;;
54464;SDS011;40374;49.480;20.016;2022-12-05T15:40:14;47.20;;;21.67;;
54464;SDS011;40374;49.480;20.016;2022-12-05T15:42:57;62.10;;;26.88;;
54464;SDS011;40374;49.480;20.016;2022-12-05T15:45:26;76.00;;;32.80;;
54464;SDS011;40374;49.480;20.016;2022-12-05T15:48:10;61.47;;;29.85;;
54464;SDS011;40374;49.480;20.016;2022-12-05T15:50:48;61.90;;;29.30;;
54464;SDS011;40374;49.480;20.016;2022-12-05T15:56:09;84.22;;;38.15;;
54464;SDS011;40374;49.480;20.016;2022-12-05T15:58:43;52.85;;;25.05;;
54464;SDS011;40374;49.480;20.016;2022-12-05T16:04:06;67.30;;;29.63;;
54464;SDS011;40374;49.480;20.016;2022-12-05T16:06:46;64.13;;;31.02;;
54464;SDS011;40374;49.480;20.016;2022-12-05T16:09:19;73.72;;;33.03;;
54464;SDS011;40374;49.480;20.016;2022-12-05T16:11:53;84.07;;;41.15;;
54464;SDS011;40374;49.480;20.016;2022-12-05T16:14:25;131.43;;;54.65;;
54464;SDS011;40374;49.480;20.016;2022-12-05T16:17:18;129.70;;;52.42;;
54464;SDS011;40374;49.480;20.016;2022-12-05T16:19:46;141.20;;;62.65;;
54464;SDS011;40374;49.480;20.016;2022-12-05T16:24:46;91.28;;;38.05;;
54464;SDS011;40374;49.480;20.016;2022-12-05T16:27:24;90.78;;;39.88;;
54464;SDS011;40374;49.480;20.016;2022-12-05T16:32:39;170.05;;;71.03;;
54464;SDS011;40374;49.480;20.016;2022-12-05T16:38:40;145.50;;;57.05;;
54464;SDS011;40374;49.480;20.016;2022-12-05T16:40:59;113.55;;;45.33;;
54464;SDS011;40374;49.480;20.016;2022-12-05T16:48:36;158.43;;;65.60;;
54464;SDS011;40374;49.480;20.016;2022-12-05T16:53:42;206.60;;;81.03;;
54464;SDS011;40374;49.480;20.016;2022-12-05T16:56:15;186.10;;;72.78;;
54464;SDS011;40374;49.480;20.016;2022-12-05T16:58:43;157.70;;;65.57;;
54464;SDS011;40374;49.480;20.016;2022-12-05T17:01:15;128.95;;;51.75;;
54464;SDS011;40374;49.480;20.016;2022-12-05T17:03:45;99.03;;;41.17;;
54464;SDS011;40374;49.480;20.016;2022-12-05T17:06:15;101.70;;;41.75;;
54464;SDS011;40374;49.480;20.016;2022-12-05T17:08:44;107.78;;;42.80;;
54464;SDS011;40374;49.480;20.016;2022-12-05T17:11:30;126.65;;;55.22;;
54464;SDS011;40374;49.480;20.016;2022-12-05T17:14:08;127.97;;;54.88;;
54464;SDS011;40374;49.480;20.016;2022-12-05T17:16:40;135.52;;;56.95;;
54464;SDS011;40374;49.480;20.016;2022-12-05T17:19:11;148.20;;;61.15;;
54464;SDS011;40374;49.480;20.016;2022-12-05T17:21:55;165.35;;;67.35;;
54464;SDS011;40374;49.480;20.016;2022-12-05T17:24:35;147.85;;;59.55;;
54464;SDS011;40374;49.480;20.016;2022-12-05T17:27:12;151.93;;;61.60;;
54464;SDS011;40374;49.480;20.016;2022-12-05T17:29:51;131.32;;;55.08;;
54464;SDS011;40374;49.480;20.016;2022-12-05T17:32:18;150.70;;;60.10;;
54464;SDS011;40374;49.480;20.016;2022-12-05T17:34:46;181.27;;;70.55;;
54464;SDS011;40374;49.480;20.016;2022-12-05T17:37:14;154.18;;;61.05;;
54464;SDS011;40374;49.480;20.016;2022-12-05T17:39:42;150.00;;;58.78;;
54464;SDS011;40374;49.480;20.016;2022-12-05T17:42:10;137.50;;;54.13;;
54464;SDS011;40374;49.480;20.016;2022-12-05T17:44:38;160.52;;;64.00;;
54464;SDS011;40374;49.480;20.016;2022-12-05T17:47:08;154.15;;;62.83;;
54464;SDS011;40374;49.480;20.016;2022-12-05T17:49:37;126.28;;;51.58;;
54464;SDS011;40374;49.480;20.016;2022-12-05T17:52:20;163.15;;;68.40;;
54464;SDS011;40374;49.480;20.016;2022-12-05T17:54:49;138.80;;;55.92;;